KCOU/COU METAR and TAF weather

Enter ICAO airport designator
Station Type Date Time Source
KCOU METAR 2019/10/16 19:54 UTC NOAA

KCOU 161954Z 31008KT 10SM OVC029 11/03 A3015 RMK AO2 SLP211 T01060033 $


Station Type Date Time Source
KCOU Decoded METAR 2019/10/16 19:54 UTC NOAA

COLUMBIA REGIONAL AIRPORT, MO, United States (KCOU) 38-49N 092-13W 271M
Oct 16, 2019 - 03:54 PM EDT / 2019.10.16 1954 UTC
Wind: from the NW (310 degrees) at 9 MPH (8 KT):0
Visibility: 10 mile(s):0
Sky conditions: overcast
Temperature: 51.1 F (10.6 C)
Dew Point: 37.9 F (3.3 C)
Relative Humidity: 60%
Pressure (altimeter): 30.15 in. Hg (1020 hPa)
ob: KCOU 161954Z 31008KT 10SM OVC029 11/03 A3015 RMK AO2 SLP211 T01060033
cycle: 20

Station Type Date Time Source
KCOU TAF 2019/10/16 18:22 UTC NOAA

TAF KCOU 161720Z 1618/1718 33013KT P6SM BKN025
FM162000 33009KT P6SM SCT035
FM170000 VRB06KT P6SM SKC

Example: see airport list